KHNZ

Henderson-Oxford Airport

Oxford, North Carolina, USA
METAR KHNZ 181245Z AUTO 00000KT 10SM CLR 00/M04 A3012 RMK AO2 T10041037
Observed Flight Rules
Dec-18 @ 12:45 UTC (35 minutes ago) Visual Flight Rules
Visibility Clouds
10 miles
  • Clear skies
Temperatures Readings
Current -0°C / 32°F
Dewpoint -4°C / 25°F
Humidity 75%
Altimeter 30.12" Hg
Pressure 1020 hPa
Elevation 161
METAR KHNZ 181245Z AUTO 00000KT 10SM CLR 00/M04 A3012 RMK AO2 T10041037
Observed Flight Rules
Dec-18 @ 12:45 UTC
(35 minutes ago)
VFR
Clouds
  • Clear skies
Temperature Dewpoint
-0°C / 32°F -4°C / 25°F
Humidity Altimeter Pressure
75% 30.12" Hg 1020 hPa